Time;durP1;ratioP1;P1;durP2;ratioP2;P2;SDS_P1;SDS_P2;PMS_P1;PMS_P2;Temp;Humidity;BMP_temperature;BMP_pressure;BME280_temperature;BME280_humidity;BME280_pressure;Samples;Min_cycle;Max_cycle;Signal;HPM_P1;HPM_P2
2021/08/11 00:02:11;;;;;;;8.27;6.83;;;18.90;99.90;;;;;;5102787;28;20463;-81
2021/08/11 00:04:38;;;;;;;6.50;5.80;;;18.90;99.90;;;;;;5106893;28;20476;-81
2021/08/11 00:07:05;;;;;;;8.70;5.17;;;18.80;99.90;;;;;;5103719;28;20888;-82
2021/08/11 00:09:31;;;;;;;5.13;4.07;;;18.80;99.90;;;;;;5097654;28;20977;-84
2021/08/11 00:11:59;;;;;;;3.70;3.40;;;18.70;99.90;;;;;;5095462;28;20529;-82
2021/08/11 00:14:28;;;;;;;5.67;3.00;;;18.70;99.90;;;;;;5103812;28;20537;-80
2021/08/11 00:16:55;;;;;;;7.53;4.03;;;18.60;99.90;;;;;;5109433;28;20481;-82
2021/08/11 00:19:23;;;;;;;5.37;2.80;;;18.60;99.90;;;;;;5106728;28;20460;-81
2021/08/11 00:21:50;;;;;;;6.13;3.80;;;18.50;99.90;;;;;;5099955;28;20517;-81
2021/08/11 00:24:17;;;;;;;3.20;2.90;;;18.50;99.90;;;;;;5102595;28;20459;-81
2021/08/11 00:26:44;;;;;;;3.33;3.00;;;18.40;99.90;;;;;;5106204;28;20462;-83
2021/08/11 00:29:11;;;;;;;10.53;3.50;;;18.40;99.90;;;;;;5101036;28;20547;-80
2021/08/11 00:31:39;;;;;;;3.47;3.17;;;18.40;99.90;;;;;;5101825;28;20452;-80
2021/08/11 00:34:06;;;;;;;3.30;2.80;;;18.30;99.90;;;;;;5104716;27;20454;-80
2021/08/11 00:36:33;;;;;;;4.57;3.13;;;18.30;99.90;;;;;;5100165;28;20462;-80
2021/08/11 00:39:00;;;;;;;3.40;3.10;;;18.30;99.90;;;;;;5094052;28;20933;-81
2021/08/11 00:41:28;;;;;;;5.20;3.17;;;18.20;99.90;;;;;;5103242;28;20546;-82
2021/08/11 00:43:54;;;;;;;4.50;3.90;;;18.20;99.90;;;;;;5105856;28;20456;-81
2021/08/11 00:46:22;;;;;;;3.87;3.50;;;18.20;99.90;;;;;;5106038;28;20807;-80
2021/08/11 00:48:50;;;;;;;3.60;3.30;;;18.20;99.90;;;;;;5101681;28;20458;-81
2021/08/11 00:51:17;;;;;;;3.40;2.90;;;18.20;99.90;;;;;;5106471;28;20828;-80
2021/08/11 00:53:48;;;;;;;3.33;3.00;;;18.10;99.90;;;;;;5096422;28;20484;-80
2021/08/11 00:56:18;;;;;;;4.10;3.60;;;18.10;99.90;;;;;;5106138;28;20468;-80
2021/08/11 00:58:46;;;;;;;4.13;3.63;;;18.10;99.90;;;;;;5105020;28;20453;-80
2021/08/11 01:01:13;;;;;;;7.80;3.30;;;18.10;99.90;;;;;;5103645;28;20448;-83
2021/08/11 01:03:40;;;;;;;4.10;3.70;;;18.00;99.90;;;;;;5099161;28;20459;-84
2021/08/11 01:06:09;;;;;;;3.53;3.20;;;18.00;99.90;;;;;;5105025;28;20474;-82
2021/08/11 01:08:37;;;;;;;7.33;3.03;;;18.00;99.90;;;;;;5105315;28;20460;-80
2021/08/11 01:11:05;;;;;;;4.93;4.30;;;18.00;99.90;;;;;;5097950;28;20461;-81
2021/08/11 01:13:33;;;;;;;4.30;3.90;;;18.00;99.90;;;;;;5097644;28;21002;-80
2021/08/11 01:16:00;;;;;;;6.33;3.90;;;18.00;99.90;;;;;;5099914;28;20458;-80
2021/08/11 01:18:27;;;;;;;7.67;4.30;;;18.10;99.90;;;;;;5105391;28;20461;-81
2021/08/11 01:21:00;;;;;;;8.07;4.40;;;18.00;99.90;;;;;;5100993;28;20457;-80
2021/08/11 01:23:37;;;;;;;7.17;4.97;;;18.00;99.90;;;;;;5110779;28;20479;-81
2021/08/11 01:26:12;;;;;;;4.73;3.93;;;18.00;99.90;;;;;;5094791;28;20547;-80
2021/08/11 01:28:45;;;;;;;6.93;3.43;;;18.00;99.90;;;;;;5098769;28;20464;-81
2021/08/11 01:31:17;;;;;;;6.03;4.03;;;18.00;99.90;;;;;;5099857;28;20468;-80
2021/08/11 01:33:58;;;;;;;6.00;4.03;;;17.90;99.90;;;;;;5095737;28;20482;-81
2021/08/11 01:36:42;;;;;;;5.10;4.13;;;17.90;99.90;;;;;;5102661;28;20458;-80
2021/08/11 01:39:15;;;;;;;8.77;4.23;;;18.00;99.90;;;;;;5106333;28;20454;-80
2021/08/11 01:41:46;;;;;;;7.20;4.50;;;18.00;99.90;;;;;;5100760;28;21181;-81
2021/08/11 01:44:15;;;;;;;5.53;3.97;;;18.00;99.90;;;;;;5100621;28;20872;-81
2021/08/11 01:46:44;;;;;;;5.33;3.63;;;18.00;99.90;;;;;;5102369;28;20476;-80
2021/08/11 01:49:15;;;;;;;6.73;3.77;;;18.00;99.90;;;;;;5100108;28;20534;-81
2021/08/11 01:51:55;;;;;;;3.90;3.23;;;18.00;99.90;;;;;;5095667;28;20460;-81
2021/08/11 01:54:24;;;;;;;7.33;3.63;;;17.90;99.90;;;;;;5104459;28;20461;-80
2021/08/11 01:56:52;;;;;;;3.93;2.97;;;17.90;99.90;;;;;;5101282;28;20971;-80
2021/08/11 01:59:21;;;;;;;8.33;3.97;;;17.90;99.90;;;;;;5099840;28;20560;-80
2021/08/11 02:01:49;;;;;;;3.17;2.97;;;17.90;99.90;;;;;;5097217;28;20491;-81
2021/08/11 02:04:19;;;;;;;2.97;2.67;;;17.80;99.90;;;;;;5096586;28;20480;-80
2021/08/11 02:06:46;;;;;;;6.70;2.50;;;17.80;99.90;;;;;;5101942;28;20460;-80
2021/08/11 02:09:14;;;;;;;2.90;2.70;;;;;;;;;;5101165;28;20473;-83
2021/08/11 02:11:41;;;;;;;5.53;3.23;;;17.80;99.90;;;;;;5100650;28;20472;-80
2021/08/11 02:14:10;;;;;;;3.13;2.93;;;17.70;99.90;;;;;;5105508;28;21113;-80
2021/08/11 02:16:39;;;;;;;4.80;3.53;;;17.70;99.90;;;;;;5100790;28;20456;-82
2021/08/11 02:19:06;;;;;;;3.90;3.37;;;17.70;99.90;;;;;;5099322;28;20448;-83
2021/08/11 02:21:34;;;;;;;6.33;3.33;;;17.60;99.90;;;;;;5092633;28;20464;-81
2021/08/11 02:24:02;;;;;;;4.33;3.33;;;17.60;99.90;;;;;;5101845;28;20453;-80
2021/08/11 02:26:35;;;;;;;5.00;3.60;;;17.60;99.90;;;;;;5103511;28;20454;-81
2021/08/11 02:29:07;;;;;;;3.60;3.30;;;17.60;99.90;;;;;;5101871;28;20472;-83
2021/08/11 02:31:42;;;;;;;5.40;4.90;;;17.60;99.90;;;;;;5102861;28;20674;-83
2021/08/11 02:34:16;;;;;;;7.77;3.87;;;17.50;99.90;;;;;;5101288;28;20479;-81
2021/08/11 02:36:51;;;;;;;9.03;4.13;;;17.50;99.90;;;;;;5102937;28;20459;-83
2021/08/11 02:39:26;;;;;;;6.67;4.00;;;17.50;99.90;;;;;;5091692;28;20483;-82
2021/08/11 02:41:58;;;;;;;11.70;4.57;;;17.50;99.90;;;;;;5095491;28;20817;-82
2021/08/11 02:44:32;;;;;;;5.33;4.10;;;17.50;99.90;;;;;;5101440;28;20448;-81
2021/08/11 02:46:59;;;;;;;7.57;4.47;;;17.50;99.90;;;;;;5100759;28;20459;-81
2021/08/11 02:49:29;;;;;;;6.83;4.37;;;17.50;99.90;;;;;;5098629;28;20464;-80
2021/08/11 02:52:01;;;;;;;8.13;4.40;;;17.40;99.90;;;;;;5099986;28;20491;-80
2021/08/11 02:54:29;;;;;;;5.93;4.40;;;17.40;99.90;;;;;;5099664;28;21066;-80
2021/08/11 02:56:58;;;;;;;11.40;5.00;;;17.40;99.90;;;;;;5103006;28;20505;-83
2021/08/11 02:59:27;;;;;;;4.50;4.00;;;17.40;99.90;;;;;;5103563;28;20906;-80
2021/08/11 03:01:55;;;;;;;5.07;3.47;;;17.40;99.90;;;;;;5093695;28;20464;-81
2021/08/11 03:04:23;;;;;;;7.47;4.10;;;17.40;99.90;;;;;;5101418;28;20813;-80
2021/08/11 03:06:50;;;;;;;8.30;4.40;;;17.40;99.90;;;;;;5099885;28;20479;-80
2021/08/11 03:09:21;;;;;;;13.93;4.67;;;17.40;99.90;;;;;;5096020;28;20452;-83
2021/08/11 03:11:47;;;;;;;5.10;4.20;;;17.30;99.90;;;;;;5091572;28;20459;-81
2021/08/11 03:14:15;;;;;;;4.30;3.90;;;17.30;99.90;;;;;;5099690;28;20496;-80
2021/08/11 03:16:43;;;;;;;4.10;3.50;;;17.30;99.90;;;;;;5107080;28;20453;-81
2021/08/11 03:19:10;;;;;;;5.33;4.30;;;17.30;99.90;;;;;;5098168;28;20467;-81
2021/08/11 03:21:38;;;;;;;5.50;4.00;;;17.30;99.90;;;;;;5100194;28;20464;-80
2021/08/11 03:24:06;;;;;;;4.70;4.30;;;17.30;99.90;;;;;;5099152;28;20815;-80
2021/08/11 03:26:35;;;;;;;9.10;4.37;;;17.20;99.90;;;;;;5096185;28;20790;-84
2021/08/11 03:29:03;;;;;;;4.47;4.07;;;17.20;99.90;;;;;;5093645;28;20498;-80
2021/08/11 03:31:31;;;;;;;3.90;3.60;;;17.20;99.90;;;;;;5103593;28;20464;-80
2021/08/11 03:33:59;;;;;;;7.20;4.50;;;17.20;99.90;;;;;;5100795;28;20486;-80
2021/08/11 03:36:27;;;;;;;4.53;3.77;;;17.20;99.90;;;;;;5099120;28;20471;-80
2021/08/11 03:38:54;;;;;;;5.20;3.77;;;17.20;99.90;;;;;;5097309;28;20934;-82
2021/08/11 03:41:22;;;;;;;5.30;4.00;;;17.20;99.90;;;;;;5085284;28;20460;-83
2021/08/11 03:43:51;;;;;;;4.80;4.20;;;17.20;99.90;;;;;;5083155;28;20802;-80
2021/08/11 03:46:19;;;;;;;5.03;4.40;;;17.20;99.90;;;;;;5085277;28;20452;-81
2021/08/11 03:48:45;;;;;;;4.70;4.20;;;17.10;99.90;;;;;;5080409;28;20469;-80
2021/08/11 03:51:12;;;;;;;5.17;3.73;;;17.10;99.90;;;;;;5084511;28;20463;-80
2021/08/11 03:53:40;;;;;;;3.10;2.87;;;17.10;99.90;;;;;;5078279;28;20634;-81
2021/08/11 03:56:07;;;;;;;7.47;3.70;;;17.10;99.90;;;;;;5083380;28;20457;-80
2021/08/11 03:58:35;;;;;;;3.93;3.40;;;17.10;99.90;;;;;;5087471;28;20478;-81
2021/08/11 04:01:05;;;;;;;3.50;3.20;;;;;;;;;;5079836;28;20953;-79
2021/08/11 04:03:33;;;;;;;5.47;3.77;;;17.00;99.90;;;;;;5078640;28;20452;-84
2021/08/11 04:06:00;;;;;;;4.23;3.80;;;17.00;99.90;;;;;;5085046;28;20992;-81
2021/08/11 04:08:27;;;;;;;4.00;3.60;;;16.90;99.90;;;;;;5080431;28;20857;-83
2021/08/11 04:10:54;;;;;;;5.27;4.77;;;16.90;99.90;;;;;;5077991;28;20484;-80
2021/08/11 04:13:21;;;;;;;6.77;4.07;;;16.90;99.90;;;;;;5086665;28;20506;-80
2021/08/11 04:15:48;;;;;;;4.90;3.73;;;16.90;99.90;;;;;;5084032;28;20857;-81
2021/08/11 04:18:17;;;;;;;5.90;4.00;;;16.90;99.90;;;;;;5079132;28;20804;-82
2021/08/11 04:20:45;;;;;;;4.37;3.97;;;16.90;99.90;;;;;;5081828;28;20458;-81
2021/08/11 04:23:13;;;;;;;3.70;3.40;;;16.90;99.90;;;;;;5084685;28;20627;-81
2021/08/11 04:25:41;;;;;;;6.23;4.27;;;16.90;99.90;;;;;;5086883;28;20448;-79
2021/08/11 04:28:10;;;;;;;4.87;4.37;;;16.90;99.90;;;;;;5083387;28;20850;-80
2021/08/11 04:30:40;;;;;;;4.73;4.30;;;16.90;99.90;;;;;;5084543;28;20451;-80
2021/08/11 04:33:07;;;;;;;6.00;3.87;;;17.00;99.90;;;;;;5082980;28;20528;-80
2021/08/11 04:35:37;;;;;;;6.43;4.43;;;17.00;99.90;;;;;;5082442;28;20542;-80
2021/08/11 04:38:07;;;;;;;8.97;4.70;;;17.00;99.90;;;;;;5078415;28;20545;-81
2021/08/11 04:40:37;;;;;;;5.30;4.80;;;17.00;99.90;;;;;;5101076;28;20819;-81
2021/08/11 04:43:05;;;;;;;4.67;3.83;;;17.00;99.90;;;;;;5104014;28;20471;-80
2021/08/11 04:45:32;;;;;;;4.90;4.50;;;17.00;99.90;;;;;;5102171;28;20455;-80
2021/08/11 04:48:01;;;;;;;3.20;3.00;;;17.00;99.90;;;;;;5103049;28;20456;-80
2021/08/11 04:50:27;;;;;;;4.03;3.60;;;17.00;99.90;;;;;;5099850;28;20937;-80
2021/08/11 04:52:56;;;;;;;6.17;3.50;;;17.00;99.90;;;;;;5097850;28;20464;-80
2021/08/11 04:55:23;;;;;;;3.53;3.23;;;16.90;99.90;;;;;;5103215;28;20484;-81
2021/08/11 04:57:50;;;;;;;4.17;3.87;;;16.90;99.90;;;;;;5095112;28;20456;-80
2021/08/11 05:00:18;;;;;;;3.90;3.47;;;16.90;99.90;;;;;;5099885;28;20948;-80
2021/08/11 05:02:46;;;;;;;3.63;3.33;;;16.90;99.90;;;;;;5102297;28;20484;-80
2021/08/11 05:05:13;;;;;;;4.43;3.80;;;16.90;99.90;;;;;;5104463;28;21044;-83
2021/08/11 05:07:41;;;;;;;5.37;4.30;;;16.90;99.90;;;;;;5096582;28;20931;-81
2021/08/11 05:10:11;;;;;;;6.80;4.13;;;16.90;99.90;;;;;;5100722;28;20452;-83
2021/08/11 05:12:39;;;;;;;4.70;3.30;;;16.90;99.90;;;;;;5101188;28;20455;-83
2021/08/11 05:15:07;;;;;;;3.23;2.93;;;16.90;99.90;;;;;;5098496;28;20943;-81
2021/08/11 05:17:34;;;;;;;3.73;3.43;;;16.90;99.90;;;;;;5103230;28;20449;-80
2021/08/11 05:20:03;;;;;;;4.03;3.70;;;16.90;99.90;;;;;;5095701;28;20977;-82
2021/08/11 05:22:31;;;;;;;3.90;3.57;;;17.00;99.90;;;;;;5097268;28;20468;-83
2021/08/11 05:24:57;;;;;;;4.00;3.30;;;17.00;99.90;;;;;;5099804;28;20539;-82
2021/08/11 05:27:27;;;;;;;3.60;3.07;;;17.00;99.90;;;;;;5099511;28;20460;-82
2021/08/11 05:29:54;;;;;;;5.70;3.23;;;17.00;99.90;;;;;;5091714;28;20456;-81
2021/08/11 05:32:21;;;;;;;6.00;4.53;;;17.00;99.90;;;;;;5096611;28;20467;-81
2021/08/11 05:34:48;;;;;;;4.73;4.33;;;17.10;99.90;;;;;;5093941;28;21078;-81
2021/08/11 05:37:16;;;;;;;5.83;4.40;;;17.10;99.90;;;;;;5098598;28;20468;-80
2021/08/11 05:39:43;;;;;;;5.13;4.73;;;17.10;99.90;;;;;;5096499;28;20484;-83
2021/08/11 05:42:10;;;;;;;7.30;3.90;;;17.20;99.90;;;;;;5095088;28;20461;-80
2021/08/11 05:44:41;;;;;;;8.43;4.90;;;17.20;99.90;;;;;;5098308;28;20461;-82
2021/08/11 05:47:08;;;;;;;5.43;4.70;;;17.20;99.90;;;;;;5095755;28;20467;-80
2021/08/11 05:49:36;;;;;;;6.63;4.30;;;17.30;99.90;;;;;;5098521;28;20451;-81
2021/08/11 05:52:03;;;;;;;6.17;5.13;;;17.30;99.90;;;;;;5100141;28;20455;-81
2021/08/11 05:54:31;;;;;;;8.10;4.77;;;17.40;99.90;;;;;;5096175;28;20488;-80
2021/08/11 05:56:58;;;;;;;12.33;5.73;;;17.40;99.90;;;;;;5094679;28;20456;-83
2021/08/11 05:59:26;;;;;;;8.07;5.70;;;17.40;99.90;;;;;;5088161;28;20476;-80
2021/08/11 06:01:54;;;;;;;7.03;5.70;;;17.50;99.90;;;;;;5101174;28;20462;-82
2021/08/11 06:04:22;;;;;;;7.97;6.20;;;17.50;99.90;;;;;;5101543;28;21482;-81
2021/08/11 06:06:51;;;;;;;9.67;5.80;;;17.60;99.90;;;;;;5094359;28;20464;-80
2021/08/11 06:09:18;;;;;;;7.50;5.07;;;17.60;99.90;;;;;;5094275;28;20468;-81
2021/08/11 06:11:46;;;;;;;8.83;5.93;;;17.60;99.90;;;;;;5101105;28;20978;-80
2021/08/11 06:14:13;;;;;;;7.60;6.87;;;17.70;99.90;;;;;;5103238;28;20479;-81
2021/08/11 06:16:39;;;;;;;8.50;6.23;;;17.70;99.90;;;;;;5095561;28;20810;-81
2021/08/11 06:19:08;;;;;;;6.00;5.40;;;17.70;99.90;;;;;;5093624;28;20469;-81
2021/08/11 06:21:36;;;;;;;11.20;5.77;;;17.80;99.90;;;;;;5101434;28;20462;-84
2021/08/11 06:24:04;;;;;;;6.40;5.77;;;17.80;99.90;;;;;;5101396;28;20455;-80
2021/08/11 06:26:32;;;;;;;7.87;6.50;;;17.80;99.90;;;;;;5094120;28;20460;-81
2021/08/11 06:29:00;;;;;;;11.80;6.70;;;17.90;99.90;;;;;;5102525;28;20464;-82
2021/08/11 06:31:27;;;;;;;8.23;7.43;;;17.90;99.90;;;;;;5097249;28;20469;-80
2021/08/11 06:33:55;;;;;;;14.20;7.80;;;18.00;99.90;;;;;;5098739;28;20500;-81
2021/08/11 06:36:25;;;;;;;9.57;7.00;;;18.00;99.90;;;;;;5097717;28;20769;-81
2021/08/11 06:38:53;;;;;;;7.43;6.70;;;18.10;99.90;;;;;;5093799;28;21052;-82
2021/08/11 06:41:22;;;;;;;6.97;6.13;;;18.20;99.90;;;;;;5053537;28;20942;-80
2021/08/11 06:43:49;;;;;;;9.60;6.80;;;18.20;99.90;;;;;;5065472;28;20926;-82
2021/08/11 06:46:16;;;;;;;8.17;6.43;;;18.30;99.90;;;;;;5066180;28;20447;-81
2021/08/11 06:48:43;;;;;;;8.50;6.60;;;18.30;99.90;;;;;;5058450;28;21016;-80
2021/08/11 06:51:11;;;;;;;6.90;6.20;;;18.40;99.90;;;;;;5060140;28;20460;-82
2021/08/11 06:53:39;;;;;;;7.70;6.00;;;18.50;99.90;;;;;;5064124;28;20818;-81
2021/08/11 06:56:08;;;;;;;9.60;7.37;;;18.60;99.90;;;;;;5056128;28;20910;-80
2021/08/11 06:58:36;;;;;;;10.00;8.23;;;18.60;99.90;;;;;;5057578;28;20550;-80
2021/08/11 07:01:03;;;;;;;11.80;8.47;;;18.70;99.90;;;;;;5066591;28;20451;-81
2021/08/11 07:03:30;;;;;;;10.90;7.67;;;18.70;99.90;;;;;;5061608;28;20498;-82
2021/08/11 07:05:57;;;;;;;11.80;8.33;;;18.80;99.90;;;;;;5063350;28;20498;-81
2021/08/11 07:08:24;;;;;;;9.00;7.47;;;18.90;99.90;;;;;;5060793;28;20455;-82
2021/08/11 07:10:53;;;;;;;16.30;9.07;;;18.90;99.90;;;;;;5062130;28;20465;-81
2021/08/11 07:13:20;;;;;;;15.87;9.07;;;19.00;99.90;;;;;;5065810;28;20458;-80
2021/08/11 07:15:47;;;;;;;14.97;12.20;;;19.10;99.90;;;;;;5059585;28;20489;-83
2021/08/11 07:18:17;;;;;;;13.87;9.87;;;19.10;99.90;;;;;;5065389;28;20459;-80
2021/08/11 07:20:44;;;;;;;13.97;11.17;;;19.20;99.90;;;;;;5059245;28;20463;-80
2021/08/11 07:23:11;;;;;;;14.40;10.83;;;19.20;99.90;;;;;;5060638;28;20455;-81
2021/08/11 07:25:38;;;;;;;12.07;10.07;;;19.20;99.90;;;;;;5060842;28;21260;-83
2021/08/11 07:28:07;;;;;;;9.73;8.73;;;19.30;99.90;;;;;;5058248;28;20467;-81
2021/08/11 07:30:34;;;;;;;12.77;9.23;;;19.30;99.90;;;;;;5065713;28;20512;-80
2021/08/11 07:33:03;;;;;;;10.03;8.77;;;19.40;99.90;;;;;;5067682;28;20455;-80
2021/08/11 07:35:30;;;;;;;10.50;8.60;;;19.40;99.90;;;;;;5059603;28;21074;-80
2021/08/11 07:37:57;;;;;;;12.20;9.00;;;19.40;99.90;;;;;;5062667;28;21092;-81
2021/08/11 07:40:27;;;;;;;13.03;10.50;;;19.50;99.90;;;;;;5086681;28;20508;-80
2021/08/11 07:42:54;;;;;;;12.10;8.80;;;19.60;99.90;;;;;;5100574;28;20484;-80
2021/08/11 07:45:25;;;;;;;14.07;11.50;;;19.60;99.90;;;;;;5096275;28;20449;-82
2021/08/11 07:47:54;;;;;;;11.70;9.80;;;19.70;99.90;;;;;;5090981;28;20480;-81
2021/08/11 07:50:22;;;;;;;9.67;8.67;;;19.70;99.90;;;;;;5093021;28;20465;-82
2021/08/11 07:52:50;;;;;;;12.07;7.80;;;19.80;99.90;;;;;;5095758;28;20577;-81
2021/08/11 07:55:18;;;;;;;9.50;8.50;;;19.80;99.90;;;;;;5087760;28;20503;-82
2021/08/11 07:57:45;;;;;;;9.90;7.03;;;19.90;99.90;;;;;;5087718;28;20460;-83
2021/08/11 08:00:13;;;;;;;12.13;8.00;;;19.90;99.90;;;;;;5086319;28;20453;-80
2021/08/11 08:02:41;;;;;;;11.87;7.60;;;19.90;99.90;;;;;;5088014;28;20460;-82
2021/08/11 08:05:09;;;;;;;10.23;7.60;;;20.00;99.90;;;;;;5096381;28;20473;-81
2021/08/11 08:07:36;;;;;;;7.80;6.40;;;20.00;99.90;;;;;;5091381;28;20445;-80
2021/08/11 08:10:04;;;;;;;8.43;6.50;;;20.00;99.90;;;;;;5089368;28;20830;-85
2021/08/11 08:12:31;;;;;;;7.47;6.67;;;20.10;99.90;;;;;;5089868;28;20898;-80
2021/08/11 08:14:59;;;;;;;6.53;5.87;;;20.20;99.90;;;;;;5091479;28;20486;-81
2021/08/11 08:17:26;;;;;;;7.70;6.80;;;20.20;99.90;;;;;;5089936;28;20479;-81
2021/08/11 08:19:54;;;;;;;6.40;5.60;;;20.30;99.90;;;;;;5091943;28;20472;-81
2021/08/11 08:22:21;;;;;;;7.80;6.10;;;20.40;99.90;;;;;;5088690;28;20458;-81
2021/08/11 08:24:54;;;;;;;11.77;5.53;;;20.40;99.90;;;;;;5097998;28;20465;-81
2021/08/11 08:27:21;;;;;;;7.33;5.63;;;20.40;99.90;;;;;;5096177;28;20871;-82
2021/08/11 08:29:48;;;;;;;5.90;4.93;;;20.50;99.90;;;;;;5097592;28;20473;-84
2021/08/11 08:32:15;;;;;;;7.20;5.67;;;20.50;99.90;;;;;;5090884;28;20980;-83
2021/08/11 08:34:42;;;;;;;8.00;6.50;;;20.60;99.90;;;;;;5095805;28;20476;-84
2021/08/11 08:37:10;;;;;;;11.83;5.13;;;20.70;99.90;;;;;;5100052;28;20456;-83
2021/08/11 08:39:37;;;;;;;7.13;6.10;;;20.70;99.90;;;;;;5090625;28;20852;-81
2021/08/11 08:42:05;;;;;;;8.03;6.60;;;20.80;99.90;;;;;;5099496;28;20462;-83
2021/08/11 08:44:32;;;;;;;8.50;5.60;;;20.90;99.90;;;;;;5100385;28;20826;-81
2021/08/11 08:47:00;;;;;;;12.10;7.60;;;20.90;99.90;;;;;;5091822;28;20895;-81
2021/08/11 08:49:28;;;;;;;6.77;5.87;;;21.10;99.90;;;;;;5096896;28;20890;-82
2021/08/11 08:51:56;;;;;;;8.13;6.23;;;21.20;99.90;;;;;;5095014;28;20463;-81
2021/08/11 08:54:25;;;;;;;7.30;6.27;;;21.20;99.90;;;;;;5094448;28;20492;-81
2021/08/11 08:56:53;;;;;;;7.73;6.93;;;21.30;99.90;;;;;;5099067;28;20461;-82
2021/08/11 08:59:20;;;;;;;7.00;6.23;;;21.40;99.90;;;;;;5093951;28;20449;-82
2021/08/11 09:01:46;;;;;;;6.90;6.20;;;21.60;99.90;;;;;;5103915;28;20483;-81
2021/08/11 09:04:13;;;;;;;6.87;5.50;;;21.70;99.90;;;;;;5094420;28;20821;-82
2021/08/11 09:06:40;;;;;;;6.13;5.50;;;21.80;99.90;;;;;;5098922;28;20469;-83
2021/08/11 09:09:09;;;;;;;8.80;6.07;;;21.90;99.90;;;;;;5100370;28;20468;-81
2021/08/11 09:11:39;;;;;;;6.90;5.87;;;21.90;99.90;;;;;;5095890;28;20496;-82
2021/08/11 09:14:26;;;;;;;10.40;6.00;;;22.00;99.90;;;;;;5097650;28;20463;-82
2021/08/11 09:16:55;;;;;;;7.07;6.37;;;22.00;99.90;;;;;;5095347;28;20452;-81
2021/08/11 09:19:22;;;;;;;7.27;6.57;;;22.10;99.90;;;;;;5093264;28;20944;-81
2021/08/11 09:22:04;;;;;;;6.23;5.63;;;22.20;99.90;;;;;;5091662;28;20975;-85
2021/08/11 09:24:35;;;;;;;7.10;6.37;;;22.10;99.90;;;;;;5099733;28;20461;-81
2021/08/11 09:27:21;;;;;;;6.07;5.57;;;22.10;99.90;;;;;;5099238;28;20502;-83
2021/08/11 09:30:07;;;;;;;8.10;5.57;;;22.20;99.90;;;;;;5096840;28;20956;-82
2021/08/11 09:32:54;;;;;;;6.23;5.20;;;22.10;99.90;;;;;;5088863;28;20835;-82
2021/08/11 09:35:23;;;;;;;12.80;6.50;;;22.10;99.90;;;;;;5098589;28;20488;-82
2021/08/11 09:37:50;;;;;;;7.93;7.07;;;22.10;99.90;;;;;;5094506;28;20458;-83
2021/08/11 09:40:19;;;;;;;7.30;6.17;;;22.10;99.90;;;;;;5096284;28;20496;-82
2021/08/11 09:42:49;;;;;;;6.77;6.17;;;22.10;99.90;;;;;;5095664;28;20824;-82
2021/08/11 09:45:16;;;;;;;6.63;5.97;;;22.10;99.90;;;;;;5091901;28;20457;-83
2021/08/11 09:48:02;;;;;;;7.93;5.50;;;22.20;99.90;;;;;;5090896;28;20495;-81
2021/08/11 09:50:38;;;;;;;8.33;7.50;;;22.20;99.90;;;;;;5098622;28;20465;-81
2021/08/11 09:53:05;;;;;;;8.53;7.60;;;22.30;99.90;;;;;;5100567;28;20560;-81
2021/08/11 09:56:00;;;;;;;7.90;6.73;;;22.30;99.90;;;;;;5093162;28;20465;-81
2021/08/11 09:58:30;;;;;;;10.77;6.63;;;22.30;99.90;;;;;;5101413;28;20520;-81
2021/08/11 10:00:56;;;;;;;7.80;6.63;;;22.30;99.90;;;;;;5097783;28;20955;-81
2021/08/11 10:03:23;;;;;;;10.37;6.80;;;22.40;99.90;;;;;;5091146;28;20464;-82
2021/08/11 10:05:52;;;;;;;7.27;5.90;;;22.40;99.90;;;;;;5095919;28;20481;-80
2021/08/11 10:08:29;;;;;;;10.07;6.07;;;22.40;99.90;;;;;;5094616;28;20820;-81
2021/08/11 10:10:56;;;;;;;5.80;5.20;;;22.50;99.90;;;;;;5091101;28;20944;-81
2021/08/11 10:13:24;;;;;;;5.33;4.83;;;22.50;99.90;;;;;;5096667;28;20535;-79
2021/08/11 10:15:53;;;;;;;4.80;4.40;;;22.50;99.90;;;;;;5093908;28;20476;-81
2021/08/11 10:18:23;;;;;;;6.80;6.07;;;22.50;99.90;;;;;;5094134;28;21153;-81
2021/08/11 10:20:52;;;;;;;6.20;5.60;;;22.50;99.90;;;;;;5092012;28;20458;-81
2021/08/11 10:23:20;;;;;;;9.47;5.10;;;22.60;99.90;;;;;;5092041;28;22510;-81
2021/08/11 10:25:47;;;;;;;6.40;5.43;;;22.70;99.90;;;;;;5094227;28;20453;-80
2021/08/11 10:28:18;;;;;;;5.60;5.10;;;22.80;99.90;;;;;;5087129;28;20483;-80
2021/08/11 10:30:46;;;;;;;4.87;4.47;;;22.90;99.90;;;;;;5100405;28;20826;-81
2021/08/11 10:33:17;;;;;;;5.17;4.37;;;23.00;99.90;;;;;;5091916;27;20453;-81
2021/08/11 10:35:45;;;;;;;4.50;4.10;;;23.10;99.90;;;;;;5093430;28;20562;-80
2021/08/11 10:38:14;;;;;;;4.37;4.07;;;23.20;99.90;;;;;;5094461;28;20952;-80
2021/08/11 10:40:42;;;;;;;5.37;4.60;;;23.20;99.90;;;;;;5101321;28;20485;-82
2021/08/11 10:43:12;;;;;;;5.73;5.20;;;23.30;99.90;;;;;;5095856;28;20463;-80
2021/08/11 10:45:40;;;;;;;6.63;4.47;;;23.30;99.90;;;;;;5095077;28;20472;-82
2021/08/11 10:48:18;;;;;;;5.57;4.30;;;23.40;99.90;;;;;;5096539;28;20490;-82
2021/08/11 10:50:46;;;;;;;6.00;4.67;;;23.40;99.90;;;;;;5097413;28;20461;-81
2021/08/11 10:53:13;;;;;;;6.03;4.90;;;23.40;99.90;;;;;;5097493;28;20458;-83
2021/08/11 10:55:43;;;;;;;6.60;3.53;;;23.50;99.90;;;;;;5092010;28;21032;-82
2021/08/11 10:58:10;;;;;;;4.00;3.60;;;23.50;99.90;;;;;;5092898;28;20965;-82
2021/08/11 11:00:44;;;;;;;4.93;3.73;;;23.50;99.90;;;;;;5091880;28;20602;-82
2021/08/11 11:03:31;;;;;;;5.83;5.20;;;23.50;99.90;;;;;;5087675;28;20948;-82
2021/08/11 11:06:00;;;;;;;5.37;4.87;;;23.50;99.90;;;;;;5094440;28;20592;-83
2021/08/11 11:08:34;;;;;;;4.53;4.10;;;23.50;99.90;;;;;;5088070;28;20464;-82
2021/08/11 11:11:42;;;;;;;5.43;3.93;;;23.50;99.90;;;;;;5093577;28;21019;-84
2021/08/11 11:14:50;;;;;;;4.90;4.23;;;23.50;99.90;;;;;;5091169;28;20721;-85
2021/08/11 11:17:17;;;;;;;7.20;5.63;;;23.50;99.90;;;;;;5095494;28;20488;-84
2021/08/11 11:20:27;;;;;;;6.23;3.90;;;23.40;99.90;;;;;;5088271;28;21254;-84
2021/08/11 11:23:04;;;;;;;5.50;3.73;;;23.40;99.90;;;;;;5101176;28;20467;-83
2021/08/11 11:25:59;;;;;;;4.97;3.90;;;23.40;99.90;;;;;;5090215;28;20540;-84
2021/08/11 11:28:52;;;;;;;5.30;3.10;;;23.40;99.90;;;;;;5092411;28;21003;-86
2021/08/11 11:31:33;;;;;;;5.63;3.77;;;23.40;99.90;;;;;;5093430;28;20450;-83
2021/08/11 11:34:23;;;;;;;7.47;3.67;;;23.40;99.90;;;;;;5098781;28;20955;-83
2021/08/11 11:37:27;;;;;;;4.23;3.83;;;23.40;99.90;;;;;;5096929;28;20840;-84
2021/08/11 11:40:07;;;;;;;4.33;3.93;;;23.50;99.90;;;;;;5089509;28;20484;-86
2021/08/11 11:42:34;;;;;;;4.47;3.80;;;23.50;99.90;;;;;;5093549;28;21007;-85
2021/08/11 11:45:02;;;;;;;5.10;4.13;;;23.50;99.90;;;;;;5097937;28;20461;-84
2021/08/11 11:48:09;;;;;;;4.70;3.77;;;23.50;99.90;;;;;;5087931;28;20465;-85
2021/08/11 11:50:43;;;;;;;6.00;4.30;;;23.50;99.90;;;;;;5090256;28;20806;-82
2021/08/11 11:53:19;;;;;;;6.43;4.50;;;23.60;99.90;;;;;;5098377;28;20461;-82
2021/08/11 11:55:48;;;;;;;4.93;4.17;;;23.60;99.90;;;;;;5100239;28;20516;-81
2021/08/11 11:58:16;;;;;;;4.57;4.13;;;23.60;99.90;;;;;;5097356;28;20463;-82
2021/08/11 12:00:44;;;;;;;5.10;4.43;;;23.60;99.90;;;;;;5096399;28;20453;-83
2021/08/11 12:03:12;;;;;;;4.47;4.07;;;23.70;99.90;;;;;;5100082;28;20486;-81
2021/08/11 12:05:46;;;;;;;4.80;4.17;;;23.70;99.90;;;;;;5099426;28;20478;-81
2021/08/11 12:08:13;;;;;;;4.73;4.23;;;23.80;99.90;;;;;;5097532;28;20461;-84
2021/08/11 12:10:40;;;;;;;4.93;4.30;;;23.80;99.90;;;;;;5103274;28;20466;-81
2021/08/11 12:13:09;;;;;;;6.43;5.20;;;23.90;99.90;;;;;;5097950;28;20944;-82
2021/08/11 12:15:37;;;;;;;6.00;4.33;;;23.90;99.90;;;;;;5094009;28;20485;-84
2021/08/11 12:18:18;;;;;;;5.63;5.10;;;23.90;99.90;;;;;;5093961;28;20826;-81
2021/08/11 12:20:45;;;;;;;6.07;4.57;;;24.00;99.90;;;;;;5095209;28;20953;-83
2021/08/11 12:23:22;;;;;;;8.90;5.07;;;24.10;99.90;;;;;;5098084;28;20457;-81
2021/08/11 12:25:50;;;;;;;5.43;4.87;;;24.10;99.90;;;;;;5097016;28;20567;-81
2021/08/11 12:28:20;;;;;;;6.33;4.97;;;24.10;99.90;;;;;;5095727;28;20458;-81
2021/08/11 12:30:58;;;;;;;5.30;4.80;;;24.10;99.90;;;;;;5097589;28;20469;-83
2021/08/11 12:33:28;;;;;;;5.87;4.80;;;24.10;99.90;;;;;;5099446;28;20467;-81
2021/08/11 12:35:55;;;;;;;5.50;4.50;;;24.20;99.90;;;;;;5097283;28;20556;-81
2021/08/11 12:38:30;;;;;;;5.00;4.47;;;24.20;99.90;;;;;;5093343;28;20530;-80
2021/08/11 12:40:58;;;;;;;7.20;4.03;;;24.20;99.90;;;;;;5094495;28;20484;-80
2021/08/11 12:43:38;;;;;;;4.83;4.40;;;24.20;99.90;;;;;;5101944;28;20555;-81
2021/08/11 12:46:06;;;;;;;4.77;4.17;;;24.20;99.90;;;;;;5097957;28;20480;-80
2021/08/11 12:48:34;;;;;;;3.70;3.23;;;24.20;99.90;;;;;;5098006;28;21004;-80
2021/08/11 12:51:04;;;;;;;3.43;3.13;;;24.20;99.90;;;;;;5101549;28;20544;-80
2021/08/11 12:53:32;;;;;;;4.67;3.30;;;24.20;99.90;;;;;;5095445;28;20445;-82
2021/08/11 12:56:10;;;;;;;3.50;3.10;;;24.30;99.90;;;;;;5103369;28;20482;-81
2021/08/11 12:58:59;;;;;;;4.17;3.00;;;24.30;99.90;;;;;;5092427;28;20462;-80
2021/08/11 13:01:30;;;;;;;4.80;3.67;;;24.40;99.90;;;;;;5092116;28;20450;-81